Time;durP1;ratioP1;P1;durP2;ratioP2;P2;SDS_P1;SDS_P2;PMS_P1;PMS_P2;Temp;Humidity;BMP_temperature;BMP_pressure;BME280_temperature;BME280_humidity;BME280_pressure;Samples;Min_cycle;Max_cycle;Signal;HPM_P1;HPM_P2
2023/03/16 00:02:13;;;;;;;5.97;2.72;;;0.30;99.90;;;0.53;89.55;101220.97;5022745;28;20037;-74
2023/03/16 00:04:39;;;;;;;5.28;1.85;;;0.20;99.90;;;0.58;89.93;101224.13;5020258;28;20037;-75
2023/03/16 00:07:10;;;;;;;6.45;1.73;;;0.20;99.90;;;0.57;89.40;101222.44;5023342;28;20029;-74
2023/03/16 00:09:39;;;;;;;8.35;2.33;;;0.10;99.90;;;0.39;90.89;101227.56;5034723;28;20478;-74
2023/03/16 00:12:14;;;;;;;9.73;1.88;;;0.00;99.90;;;0.10;92.11;101231.84;5018990;28;20034;-74
2023/03/16 00:14:48;;;;;;;6.15;2.15;;;-0.20;99.90;;;-0.16;93.39;101232.28;5023192;28;20068;-74
2023/03/16 00:17:18;;;;;;;6.75;1.67;;;-0.50;99.90;;;-0.32;93.80;101231.88;5019508;28;20041;-74
2023/03/16 00:19:53;;;;;;;7.40;1.98;;;-0.70;99.90;;;-0.42;95.39;101239.03;5016905;28;20077;-74
2023/03/16 00:22:25;;;;;;;4.78;1.80;;;-0.80;99.90;;;-0.59;96.21;101234.09;5021713;28;20104;-74
2023/03/16 00:24:52;;;;;;;9.68;2.25;;;-0.90;99.90;;;-0.55;97.66;101244.56;5021720;28;20042;-74
2023/03/16 00:27:18;;;;;;;6.63;2.03;;;-0.90;99.90;;;-0.64;97.54;101247.06;5019354;28;20458;-74
2023/03/16 00:29:46;;;;;;;8.25;2.10;;;-1.00;99.90;;;-0.80;97.77;101239.41;5022497;28;20044;-74
2023/03/16 00:32:25;;;;;;;7.72;2.30;;;-1.20;99.90;;;-0.90;99.17;101239.34;5023561;28;20048;-74
2023/03/16 00:34:51;;;;;;;7.53;2.30;;;-1.30;99.90;;;-0.83;100.00;101234.31;5017944;28;20405;-74
2023/03/16 00:37:18;;;;;;;6.32;1.83;;;-1.20;99.90;;;-0.84;100.00;101240.66;5023098;28;20056;-74
2023/03/16 00:39:46;;;;;;;6.80;2.22;;;-1.20;99.90;;;-0.82;100.00;101240.53;5023101;28;20103;-74
2023/03/16 00:42:17;;;;;;;7.63;2.30;;;-1.20;99.90;;;-0.79;100.00;101243.81;5021119;28;20103;-74
2023/03/16 00:44:43;;;;;;;7.75;2.60;;;-1.20;99.90;;;-0.68;100.00;101245.59;5024290;28;20038;-74
2023/03/16 00:47:14;;;;;;;6.85;2.40;;;-1.10;99.90;;;-0.66;100.00;101229.38;5036821;28;20036;-74
2023/03/16 00:49:42;;;;;;;8.63;2.35;;;-1.00;99.90;;;-0.55;100.00;101226.63;5016184;28;20060;-74
2023/03/16 00:52:13;;;;;;;10.70;2.33;;;-0.90;99.90;;;-0.49;100.00;101227.97;5024131;28;20048;-74
2023/03/16 00:54:44;;;;;;;6.30;2.38;;;-0.80;99.90;;;-0.51;100.00;101225.44;5021016;28;20033;-74
2023/03/16 00:57:15;;;;;;;4.57;2.40;;;-0.70;99.90;;;-0.51;99.85;101225.44;5019049;28;20109;-74
2023/03/16 00:59:41;;;;;;;5.70;2.40;;;-0.70;99.90;;;-0.52;99.41;101221.03;5019935;28;20053;-74
2023/03/16 01:02:08;;;;;;;5.63;2.17;;;-0.70;99.90;;;-0.58;98.87;101221.53;5029293;28;20396;-74
2023/03/16 01:04:38;;;;;;;6.85;2.38;;;-0.80;99.90;;;-0.60;98.98;101212.78;5022520;28;20041;-74
2023/03/16 01:07:11;;;;;;;12.40;2.47;;;-0.80;99.90;;;-0.51;99.20;101220.06;5008822;28;20042;-74
2023/03/16 01:09:38;;;;;;;11.05;2.60;;;-0.80;99.90;;;-0.53;98.25;101214.00;5018675;28;20555;-74
2023/03/16 01:12:13;;;;;;;10.93;2.83;;;-0.70;99.90;;;-0.51;96.84;101206.66;5024780;28;20111;-74
2023/03/16 01:14:40;;;;;;;6.95;2.20;;;-0.60;99.90;;;-0.36;96.80;101215.22;5018744;28;20048;-75
2023/03/16 01:17:08;;;;;;;5.15;2.15;;;-0.50;99.90;;;-0.32;95.65;101222.03;5017880;28;20127;-74
2023/03/16 01:19:36;;;;;;;5.00;2.08;;;-0.40;99.90;;;-0.19;94.55;101215.59;5022149;28;20648;-74
2023/03/16 01:22:05;;;;;;;5.50;1.90;;;-0.40;99.90;;;-0.18;93.91;101204.75;5016504;28;20034;-74
2023/03/16 01:24:33;;;;;;;8.18;2.15;;;-0.30;99.90;;;-0.23;93.16;101200.75;5025347;28;20025;-75
2023/03/16 01:26:59;;;;;;;5.97;2.00;;;-0.30;99.90;;;-0.28;93.78;101201.13;5032723;28;20413;-75
2023/03/16 01:29:25;;;;;;;4.90;2.03;;;-0.30;99.90;;;-0.23;92.49;101196.25;5021789;28;20041;-76
2023/03/16 01:31:52;;;;;;;9.20;1.90;;;-0.30;99.90;;;-0.06;91.68;101191.22;5026067;28;20119;-75
2023/03/16 01:34:18;;;;;;;6.65;2.28;;;-0.20;99.90;;;-0.22;92.43;101199.75;5025441;28;20049;-75
2023/03/16 01:36:48;;;;;;;7.15;1.70;;;-0.30;99.90;;;-0.32;92.28;101195.19;5016865;28;20405;-74
2023/03/16 01:39:16;;;;;;;6.80;1.50;;;-0.50;99.90;;;-0.25;92.60;101184.81;5026248;28;20041;-74
2023/03/16 01:41:45;;;;;;;7.80;2.03;;;-0.40;99.90;;;-0.15;nan;101184.84;5017700;28;20038;-74
2023/03/16 01:44:23;;;;;;;7.33;1.80;;;-0.30;99.90;;;-0.01;90.74;101191.69;5021200;28;20493;-74
2023/03/16 01:46:49;;;;;;;5.70;1.60;;;-0.30;99.90;;;0.03;90.30;101192.28;5018383;28;20028;-75
2023/03/16 01:49:28;;;;;;;7.22;1.92;;;-0.30;99.90;;;-0.04;90.47;101189.25;5018827;28;20034;-75
2023/03/16 01:52:05;;;;;;;7.40;2.00;;;-0.30;99.90;;;-0.23;90.81;101198.06;5017774;28;20509;-74
2023/03/16 01:54:59;;;;;;;4.45;1.88;;;-0.40;99.90;;;-0.35;92.09;101195.47;5025301;28;20052;-76
2023/03/16 01:57:35;;;;;;;7.00;1.67;;;-0.40;99.90;;;-0.31;92.80;101198.72;5031645;28;20128;-75
2023/03/16 02:00:09;;;;;;;6.00;1.67;;;-0.40;99.90;;;-0.27;93.24;101185.91;5017159;28;20116;-75
2023/03/16 02:02:48;;;;;;;6.72;2.20;;;-0.40;99.90;;;-0.17;93.19;101181.44;5026975;28;20042;-75
2023/03/16 02:05:41;;;;;;;7.53;2.10;;;-0.30;99.90;;;-0.20;93.04;101192.44;5027666;28;20100;-75
2023/03/16 02:08:09;;;;;;;8.95;2.00;;;-0.30;99.90;;;-0.20;92.74;101195.97;5031523;28;20096;-74
2023/03/16 02:10:37;;;;;;;10.00;2.47;;;-0.40;99.90;;;-0.24;93.32;101197.22;5033711;28;20041;-75
2023/03/16 02:13:03;;;;;;;5.28;2.03;;;-0.40;99.90;;;-0.39;92.93;101186.00;5037521;28;20742;-75
2023/03/16 02:15:30;;;;;;;5.72;2.00;;;-0.50;99.90;;;-0.50;94.20;101189.59;5014613;28;20129;-76
2023/03/16 02:17:59;;;;;;;5.72;1.70;;;-0.60;99.90;;;-0.52;94.75;101204.97;5018779;28;20546;-75
2023/03/16 02:20:49;;;;;;;6.78;2.30;;;-0.70;99.90;;;-0.66;95.69;101199.91;5034964;28;20049;-74
2023/03/16 02:23:19;;;;;;;6.25;1.80;;;-0.80;99.90;;;-0.85;96.90;101197.94;5031738;28;20192;-74
2023/03/16 02:26:18;;;;;;;7.03;2.40;;;-0.90;99.90;;;-1.00;97.61;101200.91;5037872;28;20138;-75
2023/03/16 02:29:09;;;;;;;7.95;2.20;;;-1.10;99.90;;;-1.12;98.35;101196.56;5033606;28;20041;-74
2023/03/16 02:31:35;;;;;;;6.32;2.35;;;-1.20;99.90;;;-1.25;99.22;101194.88;5038381;28;20481;-75
2023/03/16 02:34:03;;;;;;;7.65;2.17;;;-1.30;99.90;;;-1.28;99.74;101191.63;5024873;28;20092;-74
2023/03/16 02:36:30;;;;;;;5.97;1.92;;;-1.30;99.90;;;-1.31;100.00;101193.59;5027883;28;20029;-74
2023/03/16 02:38:56;;;;;;;10.05;2.83;;;-1.40;99.90;;;-1.39;100.00;101189.81;5012783;28;20038;-75
2023/03/16 02:41:22;;;;;;;5.88;1.80;;;-1.40;99.90;;;-1.34;100.00;101187.63;5027265;28;20128;-74
2023/03/16 02:44:09;;;;;;;8.90;2.45;;;-1.40;99.90;;;-1.38;100.00;101181.66;5037305;28;20030;-74
2023/03/16 02:46:37;;;;;;;5.03;2.05;;;-1.50;99.90;;;-1.42;100.00;101182.88;5019039;28;20099;-74
2023/03/16 02:49:15;;;;;;;7.63;2.25;;;-1.50;99.90;;;-1.46;100.00;101184.13;5027376;28;20033;-75
2023/03/16 02:51:44;;;;;;;8.00;2.00;;;-1.60;99.90;;;-1.57;100.00;101176.13;5027852;28;20029;-74
2023/03/16 02:54:10;;;;;;;6.72;2.25;;;-1.60;99.90;;;-1.64;100.00;101173.91;5031524;28;20050;-74
2023/03/16 02:56:37;;;;;;;6.65;1.92;;;-1.70;99.90;;;-1.68;100.00;101169.78;5027112;28;20037;-74
2023/03/16 02:59:03;;;;;;;4.80;1.90;;;-1.80;99.90;;;-1.79;100.00;101165.31;5019812;28;20044;-74
2023/03/16 03:01:30;;;;;;;9.82;2.15;;;-1.80;99.90;;;-1.73;100.00;101169.31;5025472;28;20038;-75
2023/03/16 03:03:56;;;;;;;7.50;2.03;;;-1.80;99.90;;;-1.77;100.00;101165.19;5016668;28;20513;-74
2023/03/16 03:06:24;;;;;;;8.25;1.88;;;-1.80;99.90;;;-1.69;100.00;101160.06;5030805;28;20413;-74
2023/03/16 03:08:50;;;;;;;5.47;2.05;;;-1.80;99.90;;;-1.62;100.00;101157.75;5020478;28;20034;-74
2023/03/16 03:11:18;;;;;;;7.25;2.15;;;-1.80;99.90;;;-1.64;100.00;101157.03;5037825;28;20068;-74
2023/03/16 03:13:46;;;;;;;6.97;2.10;;;-1.70;99.90;;;-1.63;100.00;101154.22;5012955;28;20508;-74
2023/03/16 03:16:16;;;;;;;9.82;2.42;;;-1.70;99.90;;;-1.51;100.00;101155.03;5024711;28;20042;-75
2023/03/16 03:18:42;;;;;;;3.92;1.75;;;-1.70;99.90;;;-1.50;100.00;101161.25;5030635;28;20026;-74
2023/03/16 03:21:08;;;;;;;5.45;1.50;;;-1.70;99.90;;;-1.26;100.00;101157.53;5024880;28;20045;-74
2023/03/16 03:23:34;;;;;;;10.80;2.08;;;-1.50;99.90;;;-1.22;100.00;101153.63;5040333;28;20033;-74
2023/03/16 03:26:01;;;;;;;8.52;2.03;;;-1.40;99.90;;;-1.20;100.00;101157.03;5021725;28;20105;-74
2023/03/16 03:28:28;;;;;;;5.85;2.20;;;-1.40;99.90;;;-1.23;100.00;101155.44;5015523;28;20439;-74
2023/03/16 03:30:55;;;;;;;8.68;2.55;;;-1.40;99.90;;;-1.20;100.00;101157.84;5027965;28;20552;-75
2023/03/16 03:33:23;;;;;;;5.75;2.13;;;-1.40;99.90;;;-1.09;100.00;101159.66;5014409;28;20519;-74
2023/03/16 03:35:56;;;;;;;8.82;2.38;;;-1.30;99.90;;;-0.97;99.35;101157.78;5024572;28;20037;-74
2023/03/16 03:38:25;;;;;;;6.32;2.15;;;-1.30;99.90;;;-1.02;99.23;101154.63;5039087;28;20025;-74
2023/03/16 03:40:52;;;;;;;5.75;2.10;;;-1.30;99.90;;;-1.09;98.75;101148.09;5024503;28;20040;-77
2023/03/16 03:43:20;;;;;;;5.88;1.92;;;-1.40;99.90;;;-1.23;98.82;101147.41;5028061;28;20168;-76
2023/03/16 03:45:46;;;;;;;6.68;1.80;;;-1.50;99.90;;;-1.36;98.76;101144.91;5039105;28;20033;-76
2023/03/16 03:48:13;;;;;;;10.80;2.15;;;-1.60;99.90;;;-1.52;99.96;101150.66;5038683;28;20077;-76
2023/03/16 03:50:39;;;;;;;5.70;2.38;;;-1.70;99.90;;;-1.60;100.00;101145.94;5029990;28;20091;-76
2023/03/16 03:53:23;;;;;;;4.18;1.73;;;-1.80;99.90;;;-1.68;100.00;101161.75;5023720;28;20115;-76
2023/03/16 03:56:14;;;;;;;5.93;2.20;;;-2.00;99.90;;;-1.67;100.00;101162.63;5042504;28;20045;-75
2023/03/16 03:58:40;;;;;;;6.10;1.90;;;-2.00;99.90;;;-1.61;100.00;101154.09;5031007;28;20393;-75
2023/03/16 04:01:07;;;;;;;10.98;2.03;;;-1.90;99.90;;;-1.52;100.00;101157.84;5033997;28;20033;-75
2023/03/16 04:03:33;;;;;;;7.82;2.38;;;-1.80;99.90;;;-1.44;100.00;101158.06;5025330;28;20034;-75
2023/03/16 04:05:59;;;;;;;7.30;2.30;;;-1.70;99.90;;;-1.38;100.00;101162.09;5032096;28;20033;-75
2023/03/16 04:08:26;;;;;;;6.10;1.98;;;-1.70;99.90;;;-1.37;100.00;101161.09;5027234;28;20087;-75
2023/03/16 04:10:52;;;;;;;4.93;1.98;;;-1.60;99.90;;;-1.38;100.00;101165.59;5035417;28;20041;-75
2023/03/16 04:13:20;;;;;;;6.93;1.70;;;-1.60;99.90;;;-1.31;100.00;101160.59;5030035;28;20365;-75
2023/03/16 04:15:45;;;;;;;4.70;2.17;;;-1.50;99.90;;;-1.15;100.00;101160.16;5024982;28;20037;-74
2023/03/16 04:18:24;;;;;;;5.30;2.22;;;-1.40;99.90;;;-1.09;100.00;101159.66;5039951;28;20049;-75
2023/03/16 04:20:53;;;;;;;5.13;1.90;;;-1.40;99.90;;;-1.08;98.92;101160.50;5029344;28;20064;-74
2023/03/16 04:23:21;;;;;;;10.63;2.13;;;-1.30;99.90;;;-0.97;98.25;101164.97;5017145;28;20100;-74
2023/03/16 04:25:49;;;;;;;5.75;1.77;;;-1.20;99.90;;;-1.00;97.81;101158.03;5036120;28;20509;-74
2023/03/16 04:28:17;;;;;;;5.88;2.13;;;-1.20;99.90;;;-1.03;97.10;101147.59;5034961;28;20108;-74
2023/03/16 04:30:45;;;;;;;8.15;2.03;;;-1.20;99.90;;;-1.07;97.11;101162.22;5014566;28;20054;-74
2023/03/16 04:33:26;;;;;;;6.82;1.77;;;-1.30;99.90;;;-1.14;97.05;101144.97;5014169;28;20555;-74
2023/03/16 04:35:51;;;;;;;6.55;2.03;;;-1.20;99.90;;;-1.14;96.51;101150.31;5014092;28;20038;-77
2023/03/16 04:38:19;;;;;;;5.65;1.95;;;-1.30;99.90;;;-1.17;97.16;101141.56;5029705;28;20437;-74
2023/03/16 04:40:55;;;;;;;5.32;1.80;;;-1.30;99.90;;;-1.23;96.34;101144.72;5035802;28;20059;-74
2023/03/16 04:43:23;;;;;;;6.80;1.60;;;-1.40;99.90;;;-1.19;96.22;101151.56;5039649;28;20032;-74
2023/03/16 04:45:54;;;;;;;7.72;2.00;;;-1.40;99.90;;;-1.22;95.82;101143.75;5034506;28;20528;-75
2023/03/16 04:48:20;;;;;;;4.18;1.67;;;-1.50;99.90;;;-1.25;96.20;101145.84;5033669;28;20018;-74
2023/03/16 04:50:47;;;;;;;5.20;1.75;;;-1.50;99.90;;;-1.30;96.01;101140.88;5035027;28;20124;-74
2023/03/16 04:53:15;;;;;;;;;;;-1.50;99.90;;;-1.25;96.38;101154.72;5030378;28;20040;-74
2023/03/16 04:55:41;;;;;;;4.88;1.70;;;-1.60;99.90;;;-1.39;97.23;101158.53;5024135;28;19936;-76
2023/03/16 04:58:07;;;;;;;6.03;2.00;;;-1.70;99.90;;;-1.43;96.79;101154.41;5021895;28;20030;-76
2023/03/16 05:00:36;;;;;;;7.53;2.20;;;-1.70;99.90;;;-1.48;97.15;101156.63;5031824;28;20520;-75
2023/03/16 05:03:11;;;;;;;4.95;2.00;;;-1.80;99.90;;;-1.46;99.19;101160.88;5034580;28;20486;-75
2023/03/16 05:05:38;;;;;;;5.85;1.60;;;-1.70;99.90;;;-1.34;98.76;101160.84;5024417;28;20041;-75
2023/03/16 05:08:05;;;;;;;6.22;1.95;;;-1.70;99.90;;;-1.31;99.14;101166.81;5040799;28;20481;-75
2023/03/16 05:10:33;;;;;;;8.18;2.30;;;-1.70;99.90;;;-1.29;98.95;101161.31;5032278;28;20042;-75
2023/03/16 05:12:59;;;;;;;6.05;2.05;;;-1.60;99.90;;;-1.41;99.96;101136.41;5041647;28;20029;-75
2023/03/16 05:15:25;;;;;;;6.22;2.03;;;-1.60;99.90;;;-1.37;100.00;101158.44;5022282;28;20052;-75
2023/03/16 05:17:58;;;;;;;6.55;2.10;;;-1.50;99.90;;;-1.35;100.00;101159.16;5015204;28;20026;-75
2023/03/16 05:20:25;;;;;;;10.32;1.83;;;-1.50;99.90;;;-1.09;100.00;101166.84;5027520;28;20049;-75
2023/03/16 05:22:54;;;;;;;4.65;1.52;;;-1.40;99.90;;;-1.10;100.00;101160.63;5031676;28;20030;-73
2023/03/16 05:25:26;;;;;;;5.93;1.67;;;-1.30;99.90;;;-1.10;100.00;101157.13;5029652;28;20037;-73
2023/03/16 05:27:53;;;;;;;6.97;2.10;;;-1.40;99.90;;;-1.17;99.43;101156.78;5028343;28;20034;-74
2023/03/16 05:30:36;;;;;;;5.38;1.65;;;-1.40;99.90;;;-1.11;99.42;101161.59;5029897;28;20044;-74
2023/03/16 05:33:04;;;;;;;6.10;1.73;;;-1.40;99.90;;;-1.06;98.99;101156.75;5037705;28;20056;-73
2023/03/16 05:35:31;;;;;;;4.78;1.77;;;-1.30;99.90;;;-1.09;99.02;101148.94;5020171;28;20408;-74
2023/03/16 05:38:01;;;;;;;3.95;1.70;;;-1.20;99.90;;;-0.95;99.39;101138.91;5025899;28;20103;-74
2023/03/16 05:40:28;;;;;;;7.35;1.95;;;-1.10;99.90;;;-0.83;99.06;101143.22;5025782;28;20128;-74
2023/03/16 05:43:04;;;;;;;9.85;1.85;;;-0.90;99.90;;;-0.58;98.55;101143.81;5034252;28;20034;-74
2023/03/16 05:45:33;;;;;;;5.07;1.98;;;-0.70;99.90;;;-0.41;97.91;101131.63;5024936;28;20026;-77
2023/03/16 05:48:13;;;;;;;5.53;1.77;;;-0.50;99.90;;;-0.32;97.48;101133.53;5001097;28;20113;-75
2023/03/16 05:50:44;;;;;;;6.80;1.85;;;-0.40;99.90;;;-0.14;95.93;101138.25;5036635;28;20046;-75
2023/03/16 05:53:11;;;;;;;4.30;1.65;;;-0.20;99.90;;;0.03;94.34;101127.88;5033977;28;20056;-75
2023/03/16 05:55:38;;;;;;;12.20;2.10;;;0.00;99.90;;;0.17;92.30;101123.97;5028703;28;20493;-74
2023/03/16 05:58:07;;;;;;;7.57;1.80;;;0.20;99.90;;;0.31;92.36;101120.03;5028301;28;20037;-75
2023/03/16 06:00:38;;;;;;;6.38;1.95;;;0.40;99.90;;;0.38;91.77;101118.50;5033154;28;20030;-75
2023/03/16 06:03:16;;;;;;;6.03;1.90;;;0.50;99.90;;;0.34;90.67;101103.66;5037601;28;20068;-75
2023/03/16 06:05:42;;;;;;;5.70;1.70;;;0.50;99.90;;;0.25;90.41;101074.00;5028419;28;20445;-75
2023/03/16 06:08:08;;;;;;;4.25;1.70;;;0.50;99.90;;;0.38;90.68;101091.66;5032353;28;20033;-75
2023/03/16 06:10:35;;;;;;;4.82;1.60;;;0.60;99.90;;;0.51;90.17;101084.19;5033532;28;20030;-75
2023/03/16 06:13:01;;;;;;;4.45;1.77;;;0.70;99.90;;;0.51;89.76;101086.00;5027196;28;20095;-76
2023/03/16 06:15:29;;;;;;;7.55;2.08;;;0.70;99.90;;;0.40;89.97;101071.75;5016954;28;20037;-76
2023/03/16 06:17:55;;;;;;;4.68;1.48;;;0.80;99.90;;;0.63;90.46;101098.34;5018113;28;20038;-75
2023/03/16 06:20:21;;;;;;;4.82;1.77;;;0.80;99.90;;;0.73;89.10;101094.78;5030182;28;20115;-75
2023/03/16 06:22:47;;;;;;;4.40;1.67;;;0.90;99.90;;;0.82;89.25;101078.69;5032888;28;20482;-75
2023/03/16 06:25:15;;;;;;;8.32;2.13;;;1.00;99.90;;;0.95;89.09;101078.38;5028781;28;20033;-75
2023/03/16 06:27:43;;;;;;;5.03;1.80;;;1.10;99.90;;;1.03;88.65;101093.81;5036052;28;20052;-77
2023/03/16 06:30:12;;;;;;;5.70;1.77;;;1.30;99.90;;;1.08;88.06;101088.84;5016253;28;20588;-75
2023/03/16 06:32:43;;;;;;;6.47;1.80;;;1.30;99.90;;;1.27;87.80;101105.94;5016691;28;20026;-75
2023/03/16 06:35:09;;;;;;;6.47;1.70;;;1.40;99.90;;;1.39;87.41;101110.16;5021238;28;20477;-76
2023/03/16 06:37:38;;;;;;;6.45;1.90;;;1.50;99.90;;;1.39;86.57;101106.63;5025715;28;20034;-76
2023/03/16 06:40:18;;;;;;;5.50;1.85;;;1.60;99.90;;;1.49;86.63;101103.91;5014137;28;20030;-76
2023/03/16 06:42:44;;;;;;;5.70;1.55;;;1.70;99.90;;;1.37;86.17;101105.91;5018888;28;20110;-76
2023/03/16 06:45:15;;;;;;;6.15;1.70;;;1.70;99.90;;;1.49;86.83;101104.75;5027178;28;20041;-78
2023/03/16 06:47:42;;;;;;;7.13;1.67;;;1.70;99.90;;;1.47;86.86;101109.41;5037119;28;20135;-78
2023/03/16 06:50:10;;;;;;;4.35;1.83;;;1.70;99.90;;;1.64;87.88;101117.75;5025809;28;20130;-78
2023/03/16 06:52:37;;;;;;;5.25;2.00;;;1.70;99.90;;;1.51;87.57;101123.44;5024117;28;20025;-78
2023/03/16 06:55:04;;;;;;;5.32;2.08;;;1.70;99.90;;;1.62;86.33;101125.09;5020414;28;20041;-79
2023/03/16 06:57:33;;;;;;;6.85;2.20;;;1.80;99.90;;;1.57;85.99;101117.47;5033724;28;20026;-78
2023/03/16 06:59:59;;;;;;;5.35;1.67;;;1.80;99.90;;;1.68;85.89;101113.75;5032446;28;20037;-79
2023/03/16 07:02:25;;;;;;;5.10;1.70;;;1.90;99.90;;;1.69;85.69;101126.22;5017230;28;20038;-78
2023/03/16 07:04:52;;;;;;;4.93;2.00;;;1.90;99.90;;;1.73;85.38;101122.22;5029446;28;20046;-78
2023/03/16 07:07:18;;;;;;;6.65;2.00;;;2.00;99.90;;;1.86;83.77;101135.34;5022763;28;20519;-79
2023/03/16 07:09:44;;;;;;;4.82;1.63;;;2.00;99.90;;;1.92;84.08;101139.31;5019088;28;20033;-79
2023/03/16 07:12:12;;;;;;;7.28;1.88;;;2.10;99.90;;;1.91;84.84;101141.13;5021661;28;20033;-79
2023/03/16 07:14:38;;;;;;;7.85;2.47;;;2.20;99.90;;;1.98;83.75;101139.53;5039532;28;20048;-80
2023/03/16 07:17:05;;;;;;;4.97;1.83;;;2.30;99.90;;;2.14;83.66;101149.69;5024512;28;20057;-80
2023/03/16 07:19:31;;;;;;;5.82;2.00;;;2.40;99.90;;;2.28;83.10;101148.34;5031277;28;20378;-79
2023/03/16 07:22:01;;;;;;;10.63;1.95;;;2.50;99.90;;;2.25;82.67;101145.94;5033432;28;20088;-79
2023/03/16 07:24:29;;;;;;;5.15;1.88;;;2.50;99.90;;;2.41;82.37;101157.91;5031420;28;20065;-78
2023/03/16 07:26:55;;;;;;;5.78;2.00;;;2.60;99.90;;;2.40;81.83;101138.22;5030006;28;20389;-78
2023/03/16 07:29:27;;;;;;;6.10;1.70;;;2.70;99.90;;;2.49;82.23;101138.31;5032183;28;20034;-78
2023/03/16 07:31:54;;;;;;;7.43;1.90;;;2.70;99.90;;;2.57;82.04;101154.53;5023477;28;20145;-78
2023/03/16 07:34:24;;;;;;;7.38;2.00;;;2.80;99.90;;;2.55;80.81;101141.25;5035863;28;20046;-78
2023/03/16 07:36:54;;;;;;;6.00;1.85;;;2.80;99.90;;;2.66;80.04;101153.66;5012048;28;20026;-78
2023/03/16 07:39:22;;;;;;;5.57;1.63;;;2.90;99.90;;;2.68;80.09;101146.25;5028313;28;20060;-78
2023/03/16 07:41:50;;;;;;;4.10;1.88;;;3.00;99.90;;;2.89;80.13;101166.66;5029293;28;20104;-78
2023/03/16 07:44:28;;;;;;;3.75;1.77;;;3.10;99.90;;;2.91;79.17;101159.25;5032344;28;20041;-78
2023/03/16 07:46:54;;;;;;;5.23;1.77;;;3.30;99.90;;;3.08;79.45;101162.13;5036371;28;20440;-78
2023/03/16 07:49:25;;;;;;;7.38;2.40;;;3.40;99.90;;;3.18;80.37;101160.16;5016322;28;20046;-78
2023/03/16 07:51:53;;;;;;;10.02;2.08;;;3.60;99.90;;;3.27;78.96;101163.78;5018722;28;20477;-79
2023/03/16 07:54:23;;;;;;;5.55;1.80;;;3.60;99.90;;;3.25;77.00;101155.88;5034808;28;20080;-78
2023/03/16 07:56:49;;;;;;;5.80;1.80;;;3.60;99.90;;;3.56;77.11;101171.63;5027966;28;20113;-79
2023/03/16 07:59:26;;;;;;;5.20;1.70;;;3.80;99.90;;;3.82;75.94;101146.47;5034056;28;20037;-79
2023/03/16 08:01:52;;;;;;;6.55;1.80;;;4.10;99.90;;;4.05;72.94;101139.66;5019890;28;20119;-78
2023/03/16 08:04:17;;;;;;;4.28;1.80;;;4.30;99.90;;;4.31;74.07;101158.53;5026672;28;20453;-78
2023/03/16 08:06:44;;;;;;;5.60;1.65;;;4.60;99.90;;;4.41;71.15;101147.59;5037801;28;20116;-78
2023/03/16 08:09:10;;;;;;;7.53;1.65;;;4.70;99.90;;;4.31;69.70;101142.31;5039438;28;20060;-78
2023/03/16 08:11:38;;;;;;;4.47;1.52;;;4.70;99.90;;;4.15;70.01;101135.81;5038546;28;20080;-78
2023/03/16 08:14:04;;;;;;;6.85;1.95;;;4.60;99.90;;;4.13;70.14;101143.25;5019050;28;20073;-79
2023/03/16 08:16:50;;;;;;;4.15;1.52;;;4.60;99.90;;;4.23;71.03;101144.97;5042871;28;20037;-78
2023/03/16 08:19:19;;;;;;;7.43;1.75;;;4.60;99.90;;;4.42;68.73;101143.88;5030743;28;20045;-78
2023/03/16 08:21:44;;;;;;;6.13;1.58;;;4.70;99.90;;;4.29;71.05;101147.03;5027827;28;20453;-77
2023/03/16 08:24:10;;;;;;;6.40;1.70;;;4.70;99.90;;;4.44;68.95;101150.78;5042673;28;20045;-77
2023/03/16 08:26:37;;;;;;;3.33;1.48;;;4.70;99.90;;;4.51;67.90;101142.00;5033973;28;20065;-77
2023/03/16 08:29:03;;;;;;;5.20;1.77;;;4.90;99.90;;;4.58;68.07;101146.59;5038399;28;20493;-77
2023/03/16 08:31:34;;;;;;;5.63;1.75;;;4.90;99.90;;;4.71;68.23;101137.19;5033509;28;20436;-77
2023/03/16 08:34:17;;;;;;;5.07;1.50;;;5.00;99.90;;;4.66;67.62;101148.50;5031779;28;20072;-77
2023/03/16 08:36:43;;;;;;;4.70;1.60;;;4.90;99.90;;;4.45;67.24;101148.94;5021954;28;20033;-77
2023/03/16 08:39:11;;;;;;;5.57;2.05;;;4.90;99.90;;;4.54;68.46;101156.06;5033840;28;20029;-77
2023/03/16 08:41:45;;;;;;;5.50;1.45;;;4.90;99.90;;;4.84;69.81;101156.47;5028444;28;20060;-78
2023/03/16 08:44:22;;;;;;;5.65;1.52;;;5.00;99.90;;;4.85;66.64;101133.81;5043285;28;20033;-77
2023/03/16 08:46:48;;;;;;;6.72;1.30;;;5.10;99.90;;;5.16;65.80;101148.56;5047083;28;20048;-77
2023/03/16 08:49:14;;;;;;;4.10;1.30;;;5.30;99.90;;;5.30;63.19;101128.09;5049452;28;20041;-77
2023/03/16 08:51:41;;;;;;;5.47;1.50;;;5.50;99.90;;;5.53;61.76;101135.50;5041314;28;20058;-77
2023/03/16 08:54:07;;;;;;;7.65;1.40;;;5.70;99.90;;;5.67;61.22;101139.38;5027929;28;20130;-77
2023/03/16 08:56:32;;;;;;;3.42;1.30;;;5.90;99.90;;;5.79;60.27;101123.63;5020017;28;20045;-77
2023/03/16 08:58:58;;;;;;;7.72;1.42;;;6.10;99.90;;;5.71;57.62;101121.75;5019953;28;20025;-77
2023/03/16 09:01:25;;;;;;;6.07;1.65;;;6.10;99.90;;;5.79;59.83;101110.06;5023000;28;20459;-76
2023/03/16 09:03:51;;;;;;;4.90;1.55;;;6.10;99.90;;;5.56;57.58;101121.63;5023090;28;20091;-76
2023/03/16 09:06:17;;;;;;;6.03;1.23;;;6.00;99.90;;;5.98;58.15;101130.50;5035348;28;20485;-76
2023/03/16 09:08:46;;;;;;;5.53;1.35;;;6.10;99.90;;;6.02;57.60;101126.44;5019138;28;20034;-75
2023/03/16 09:11:16;;;;;;;5.97;1.50;;;6.20;99.90;;;6.19;56.27;101119.94;5017278;28;20042;-75
2023/03/16 09:13:43;;;;;;;6.40;1.60;;;6.40;99.90;;;6.26;56.86;101119.22;5035786;28;20053;-76
2023/03/16 09:16:11;;;;;;;4.47;1.10;;;6.40;99.90;;;6.42;58.97;101127.28;5025617;28;20049;-76
2023/03/16 09:18:37;;;;;;;5.53;1.23;;;6.50;99.90;;;5.98;52.99;101089.84;5027203;28;20033;-75
2023/03/16 09:21:06;;;;;;;5.40;1.10;;;6.40;99.50;;;6.18;55.37;101101.13;5040779;28;20053;-75
2023/03/16 09:23:36;;;;;;;3.63;1.10;;;6.40;99.90;;;6.45;56.16;101107.09;5016041;28;20083;-76
2023/03/16 09:26:06;;;;;;;5.88;1.30;;;6.60;99.90;;;6.51;53.40;101095.56;5024468;28;20140;-75
2023/03/16 09:28:34;;;;;;;3.47;1.25;;;6.70;99.70;;;6.50;54.44;101091.16;5016507;28;20038;-76
2023/03/16 09:31:02;;;;;;;5.22;1.40;;;6.80;99.90;;;6.67;54.15;101097.31;5030951;28;20029;-76
2023/03/16 09:33:29;;;;;;;7.03;1.70;;;6.80;99.90;;;7.02;54.91;101111.28;5019491;28;20034;-76
2023/03/16 09:35:56;;;;;;;4.75;1.25;;;7.00;99.90;;;6.70;51.63;101072.56;5028146;28;20053;-77
2023/03/16 09:38:24;;;;;;;2.40;1.05;;;7.00;97.80;;;6.71;50.43;101066.09;5019031;28;20037;-76
2023/03/16 09:40:57;;;;;;;6.53;1.45;;;7.00;96.70;;;7.19;53.22;101084.03;5031641;28;20041;-76
2023/03/16 09:43:57;;;;;;;3.67;1.23;;;7.30;98.80;;;7.23;52.81;101082.63;5017760;28;20038;-76
2023/03/16 09:46:35;;;;;;;5.38;1.30;;;7.30;98.50;;;6.84;50.14;101053.78;5013101;28;20374;-77
2023/03/16 09:49:01;;;;;;;5.55;1.40;;;7.20;96.40;;;7.13;52.00;101077.47;5016946;28;20120;-77
2023/03/16 09:51:42;;;;;;;4.50;1.30;;;7.30;97.50;;;7.36;51.15;101070.28;5024923;28;20045;-77
2023/03/16 09:54:48;;;;;;;5.88;1.20;;;7.50;97.10;;;7.22;50.38;101072.81;5020637;28;20155;-77
2023/03/16 09:57:39;;;;;;;5.05;1.10;;;7.50;97.30;;;7.58;49.49;101057.69;5014822;28;20038;-77
2023/03/16 10:00:26;;;;;;;5.80;1.20;;;7.70;96.20;;;8.05;50.92;101066.44;5033641;28;20557;-78
2023/03/16 10:03:28;;;;;;;5.53;1.60;;;8.30;97.00;;;8.32;49.49;101061.31;5018766;28;20041;-77
2023/03/16 10:06:02;;;;;;;3.88;1.20;;;8.80;94.80;;;8.19;47.84;101062.03;5019010;28;20069;-77
2023/03/16 10:09:10;;;;;;;3.42;1.10;;;9.00;92.60;;;8.83;47.99;101065.03;5017602;28;20037;-77
2023/03/16 10:11:45;;;;;;;4.15;1.40;;;9.30;92.00;;;8.42;46.64;101053.69;5027370;28;20053;-78
2023/03/16 10:14:41;;;;;;;3.97;1.17;;;9.40;90.50;;;8.93;45.68;101060.06;5027532;28;20033;-78
2023/03/16 10:17:16;;;;;;;4.47;1.25;;;9.50;89.80;;;9.08;44.38;101046.38;5021034;28;20359;-77
2023/03/16 10:20:08;;;;;;;5.63;1.23;;;10.00;87.20;;;9.62;45.42;101066.69;5023275;28;20127;-77
2023/03/16 10:22:41;;;;;;;6.55;1.30;;;10.20;88.80;;;10.30;43.58;101046.00;5028041;28;20397;-77
2023/03/16 10:25:38;;;;;;;5.32;1.20;;;10.60;86.40;;;10.15;40.78;101023.50;5018182;28;20038;-75
2023/03/16 10:28:04;;;;;;;3.58;1.30;;;10.70;81.10;;;10.72;42.22;101043.19;5020400;28;20384;-75
2023/03/16 10:30:36;;;;;;;3.63;1.00;;;10.90;83.40;;;11.03;39.75;101017.16;5020221;28;20033;-76
2023/03/16 10:33:22;;;;;;;4.32;1.20;;;11.20;79.30;;;10.89;38.46;101016.31;5027211;28;20025;-77